sensor_id;sensor_type;location;lat;lon;timestamp;P1;durP1;ratioP1;P2;durP2;ratioP2
62535;SDS011;63050;47.514;18.920;2023-12-29T00:02:28;15.30;;;9.70;;
62535;SDS011;63050;47.514;18.920;2023-12-29T00:07:30;15.10;;;10.00;;
62535;SDS011;63050;47.514;18.920;2023-12-29T00:12:32;15.20;;;10.00;;
62535;SDS011;63050;47.514;18.920;2023-12-29T00:17:34;16.50;;;10.10;;
62535;SDS011;63050;47.514;18.920;2023-12-29T00:22:41;16.00;;;10.30;;
62535;SDS011;63050;47.514;18.920;2023-12-29T00:27:43;16.90;;;12.10;;
62535;SDS011;63050;47.514;18.920;2023-12-29T00:32:45;15.00;;;10.50;;
62535;SDS011;63050;47.514;18.920;2023-12-29T00:37:47;14.70;;;9.70;;
62535;SDS011;63050;47.514;18.920;2023-12-29T00:42:48;17.30;;;11.50;;
62535;SDS011;63050;47.514;18.920;2023-12-29T00:47:49;17.90;;;11.40;;
62535;SDS011;63050;47.514;18.920;2023-12-29T00:52:52;16.60;;;11.30;;
62535;SDS011;63050;47.514;18.920;2023-12-29T00:57:55;18.60;;;11.30;;
62535;SDS011;63050;47.514;18.920;2023-12-29T01:02:56;16.00;;;11.80;;
62535;SDS011;63050;47.514;18.920;2023-12-29T01:07:58;15.50;;;10.90;;
62535;SDS011;63050;47.514;18.920;2023-12-29T01:12:59;16.90;;;11.10;;
62535;SDS011;63050;47.514;18.920;2023-12-29T01:18:02;15.00;;;10.50;;
62535;SDS011;63050;47.514;18.920;2023-12-29T01:23:04;14.50;;;9.90;;
62535;SDS011;63050;47.514;18.920;2023-12-29T01:28:06;14.90;;;10.10;;
62535;SDS011;63050;47.514;18.920;2023-12-29T01:33:08;15.20;;;9.60;;
62535;SDS011;63050;47.514;18.920;2023-12-29T01:38:10;12.30;;;9.00;;
62535;SDS011;63050;47.514;18.920;2023-12-29T01:43:11;12.60;;;8.60;;
62535;SDS011;63050;47.514;18.920;2023-12-29T01:48:13;12.70;;;8.60;;
62535;SDS011;63050;47.514;18.920;2023-12-29T01:53:15;10.90;;;7.80;;
62535;SDS011;63050;47.514;18.920;2023-12-29T01:58:17;14.10;;;9.00;;
62535;SDS011;63050;47.514;18.920;2023-12-29T02:03:19;12.40;;;8.20;;
62535;SDS011;63050;47.514;18.920;2023-12-29T02:08:22;12.60;;;8.30;;
62535;SDS011;63050;47.514;18.920;2023-12-29T02:13:23;11.50;;;8.70;;
62535;SDS011;63050;47.514;18.920;2023-12-29T02:18:25;10.80;;;7.50;;
62535;SDS011;63050;47.514;18.920;2023-12-29T02:23:27;11.70;;;8.50;;
62535;SDS011;63050;47.514;18.920;2023-12-29T02:28:30;12.30;;;7.70;;
62535;SDS011;63050;47.514;18.920;2023-12-29T02:33:35;13.10;;;9.00;;
62535;SDS011;63050;47.514;18.920;2023-12-29T02:38:39;11.60;;;7.60;;
62535;SDS011;63050;47.514;18.920;2023-12-29T02:43:41;14.00;;;9.40;;
62535;SDS011;63050;47.514;18.920;2023-12-29T02:48:43;12.90;;;8.20;;
62535;SDS011;63050;47.514;18.920;2023-12-29T02:53:45;12.00;;;8.40;;
62535;SDS011;63050;47.514;18.920;2023-12-29T02:58:48;14.00;;;8.40;;
62535;SDS011;63050;47.514;18.920;2023-12-29T03:03:49;14.70;;;8.60;;
62535;SDS011;63050;47.514;18.920;2023-12-29T03:08:51;10.90;;;7.80;;
62535;SDS011;63050;47.514;18.920;2023-12-29T03:13:53;12.40;;;8.10;;
62535;SDS011;63050;47.514;18.920;2023-12-29T03:18:55;12.90;;;8.60;;
62535;SDS011;63050;47.514;18.920;2023-12-29T03:23:57;12.20;;;7.90;;
62535;SDS011;63050;47.514;18.920;2023-12-29T03:28:59;11.30;;;7.50;;
62535;SDS011;63050;47.514;18.920;2023-12-29T03:34:01;13.10;;;7.80;;
62535;SDS011;63050;47.514;18.920;2023-12-29T03:39:03;13.70;;;8.70;;
62535;SDS011;63050;47.514;18.920;2023-12-29T03:44:29;12.40;;;8.00;;
62535;SDS011;63050;47.514;18.920;2023-12-29T03:49:31;15.20;;;8.50;;
62535;SDS011;63050;47.514;18.920;2023-12-29T03:54:32;13.50;;;9.00;;
62535;SDS011;63050;47.514;18.920;2023-12-29T03:59:38;12.90;;;8.40;;
62535;SDS011;63050;47.514;18.920;2023-12-29T04:04:41;12.10;;;7.50;;
62535;SDS011;63050;47.514;18.920;2023-12-29T04:09:43;14.00;;;8.60;;
62535;SDS011;63050;47.514;18.920;2023-12-29T04:14:44;13.60;;;7.90;;
62535;SDS011;63050;47.514;18.920;2023-12-29T04:19:45;10.80;;;7.90;;
62535;SDS011;63050;47.514;18.920;2023-12-29T04:24:47;12.60;;;7.80;;
62535;SDS011;63050;47.514;18.920;2023-12-29T04:29:50;13.30;;;8.30;;
62535;SDS011;63050;47.514;18.920;2023-12-29T04:34:51;9.90;;;7.20;;
62535;SDS011;63050;47.514;18.920;2023-12-29T04:39:53;10.50;;;7.70;;
62535;SDS011;63050;47.514;18.920;2023-12-29T04:44:56;12.60;;;7.80;;
62535;SDS011;63050;47.514;18.920;2023-12-29T04:49:58;12.50;;;8.50;;
62535;SDS011;63050;47.514;18.920;2023-12-29T04:54:59;11.10;;;7.80;;
62535;SDS011;63050;47.514;18.920;2023-12-29T05:00:01;13.00;;;9.10;;
62535;SDS011;63050;47.514;18.920;2023-12-29T05:05:03;13.90;;;8.20;;
62535;SDS011;63050;47.514;18.920;2023-12-29T05:10:05;15.10;;;9.10;;
62535;SDS011;63050;47.514;18.920;2023-12-29T05:15:32;12.70;;;8.20;;
62535;SDS011;63050;47.514;18.920;2023-12-29T05:20:34;15.10;;;8.50;;
62535;SDS011;63050;47.514;18.920;2023-12-29T05:25:37;12.70;;;8.30;;
62535;SDS011;63050;47.514;18.920;2023-12-29T05:30:39;15.20;;;9.60;;
62535;SDS011;63050;47.514;18.920;2023-12-29T05:35:40;14.80;;;8.70;;
62535;SDS011;63050;47.514;18.920;2023-12-29T05:40:42;14.70;;;9.30;;
62535;SDS011;63050;47.514;18.920;2023-12-29T05:45:44;13.70;;;8.80;;
62535;SDS011;63050;47.514;18.920;2023-12-29T05:50:46;13.50;;;8.80;;
62535;SDS011;63050;47.514;18.920;2023-12-29T05:55:47;13.60;;;9.10;;
62535;SDS011;63050;47.514;18.920;2023-12-29T06:00:49;12.90;;;8.70;;
62535;SDS011;63050;47.514;18.920;2023-12-29T06:05:51;15.90;;;9.80;;
62535;SDS011;63050;47.514;18.920;2023-12-29T06:10:53;15.10;;;9.40;;
62535;SDS011;63050;47.514;18.920;2023-12-29T06:15:55;14.90;;;8.70;;
62535;SDS011;63050;47.514;18.920;2023-12-29T06:20:56;14.60;;;10.80;;
62535;SDS011;63050;47.514;18.920;2023-12-29T06:25:58;16.20;;;10.00;;
62535;SDS011;63050;47.514;18.920;2023-12-29T06:31:00;12.40;;;8.40;;
62535;SDS011;63050;47.514;18.920;2023-12-29T06:36:03;17.80;;;10.70;;
62535;SDS011;63050;47.514;18.920;2023-12-29T06:41:05;13.40;;;8.90;;
62535;SDS011;63050;47.514;18.920;2023-12-29T06:46:07;15.10;;;9.50;;
62535;SDS011;63050;47.514;18.920;2023-12-29T06:51:15;14.70;;;9.60;;
62535;SDS011;63050;47.514;18.920;2023-12-29T06:56:16;13.10;;;9.70;;
62535;SDS011;63050;47.514;18.920;2023-12-29T07:01:19;15.20;;;9.30;;
62535;SDS011;63050;47.514;18.920;2023-12-29T07:06:21;16.60;;;10.20;;
62535;SDS011;63050;47.514;18.920;2023-12-29T07:11:22;15.20;;;9.90;;
62535;SDS011;63050;47.514;18.920;2023-12-29T07:16:23;18.50;;;10.10;;
62535;SDS011;63050;47.514;18.920;2023-12-29T07:21:25;20.30;;;12.00;;
62535;SDS011;63050;47.514;18.920;2023-12-29T07:26:32;16.40;;;10.90;;
62535;SDS011;63050;47.514;18.920;2023-12-29T07:31:38;14.70;;;9.30;;
62535;SDS011;63050;47.514;18.920;2023-12-29T07:36:40;18.10;;;11.40;;
62535;SDS011;63050;47.514;18.920;2023-12-29T07:41:41;16.90;;;10.60;;
62535;SDS011;63050;47.514;18.920;2023-12-29T07:46:43;17.30;;;11.60;;
62535;SDS011;63050;47.514;18.920;2023-12-29T07:51:46;18.60;;;12.20;;
62535;SDS011;63050;47.514;18.920;2023-12-29T07:56:47;18.40;;;11.60;;
62535;SDS011;63050;47.514;18.920;2023-12-29T08:01:49;18.20;;;12.40;;
62535;SDS011;63050;47.514;18.920;2023-12-29T08:06:50;18.40;;;12.70;;
62535;SDS011;63050;47.514;18.920;2023-12-29T08:11:51;20.30;;;12.50;;
62535;SDS011;63050;47.514;18.920;2023-12-29T08:16:52;18.80;;;11.80;;
62535;SDS011;63050;47.514;18.920;2023-12-29T08:21:53;17.80;;;11.70;;
62535;SDS011;63050;47.514;18.920;2023-12-29T08:26:55;17.50;;;12.30;;
62535;SDS011;63050;47.514;18.920;2023-12-29T08:31:57;15.70;;;11.00;;
62535;SDS011;63050;47.514;18.920;2023-12-29T08:36:59;17.90;;;12.40;;
62535;SDS011;63050;47.514;18.920;2023-12-29T08:42:00;18.20;;;12.50;;
62535;SDS011;63050;47.514;18.920;2023-12-29T08:47:01;18.10;;;13.10;;
62535;SDS011;63050;47.514;18.920;2023-12-29T08:52:03;18.00;;;13.00;;
62535;SDS011;63050;47.514;18.920;2023-12-29T08:57:05;19.30;;;14.40;;
62535;SDS011;63050;47.514;18.920;2023-12-29T09:02:08;20.80;;;15.00;;
62535;SDS011;63050;47.514;18.920;2023-12-29T09:07:09;18.40;;;14.50;;
62535;SDS011;63050;47.514;18.920;2023-12-29T09:12:10;16.70;;;12.70;;
62535;SDS011;63050;47.514;18.920;2023-12-29T09:17:11;22.60;;;16.20;;
62535;SDS011;63050;47.514;18.920;2023-12-29T09:22:13;23.60;;;18.30;;
62535;SDS011;63050;47.514;18.920;2023-12-29T09:27:14;25.00;;;19.10;;
62535;SDS011;63050;47.514;18.920;2023-12-29T09:32:16;27.40;;;18.90;;
62535;SDS011;63050;47.514;18.920;2023-12-29T09:37:18;24.70;;;17.50;;
62535;SDS011;63050;47.514;18.920;2023-12-29T09:42:20;27.40;;;18.80;;
62535;SDS011;63050;47.514;18.920;2023-12-29T09:47:25;20.50;;;14.90;;
62535;SDS011;63050;47.514;18.920;2023-12-29T09:52:26;23.20;;;13.80;;
62535;SDS011;63050;47.514;18.920;2023-12-29T09:57:28;24.70;;;16.10;;
62535;SDS011;63050;47.514;18.920;2023-12-29T10:02:30;20.10;;;14.40;;
62535;SDS011;63050;47.514;18.920;2023-12-29T10:07:34;15.30;;;12.90;;
62535;SDS011;63050;47.514;18.920;2023-12-29T10:12:38;16.10;;;12.20;;
62535;SDS011;63050;47.514;18.920;2023-12-29T10:23:08;15.30;;;10.80;;
62535;SDS011;63050;47.514;18.920;2023-12-29T10:28:46;15.60;;;11.40;;
62535;SDS011;63050;47.514;18.920;2023-12-29T10:33:48;16.20;;;11.50;;
62535;SDS011;63050;47.514;18.920;2023-12-29T10:39:05;14.40;;;11.20;;
62535;SDS011;63050;47.514;18.920;2023-12-29T10:44:07;14.60;;;11.80;;
62535;SDS011;63050;47.514;18.920;2023-12-29T10:49:09;14.90;;;11.20;;
62535;SDS011;63050;47.514;18.920;2023-12-29T10:54:18;12.90;;;9.90;;
62535;SDS011;63050;47.514;18.920;2023-12-29T10:59:23;14.50;;;11.10;;
62535;SDS011;63050;47.514;18.920;2023-12-29T11:04:25;10.10;;;7.60;;
62535;SDS011;63050;47.514;18.920;2023-12-29T11:09:30;11.70;;;8.90;;
62535;SDS011;63050;47.514;18.920;2023-12-29T11:14:32;12.40;;;10.00;;
62535;SDS011;63050;47.514;18.920;2023-12-29T11:19:34;13.10;;;11.00;;
62535;SDS011;63050;47.514;18.920;2023-12-29T11:24:36;12.50;;;9.10;;
62535;SDS011;63050;47.514;18.920;2023-12-29T11:29:37;9.10;;;7.90;;
62535;SDS011;63050;47.514;18.920;2023-12-29T11:34:41;10.60;;;7.90;;
62535;SDS011;63050;47.514;18.920;2023-12-29T11:45:30;8.10;;;6.60;;
62535;SDS011;63050;47.514;18.920;2023-12-29T11:50:36;8.00;;;6.30;;
62535;SDS011;63050;47.514;18.920;2023-12-29T11:55:41;10.20;;;8.10;;
62535;SDS011;63050;47.514;18.920;2023-12-29T12:00:44;10.20;;;7.80;;
62535;SDS011;63050;47.514;18.920;2023-12-29T12:05:48;8.30;;;6.90;;
62535;SDS011;63050;47.514;18.920;2023-12-29T12:10:49;10.50;;;7.30;;
62535;SDS011;63050;47.514;18.920;2023-12-29T12:15:51;6.60;;;5.20;;
62535;SDS011;63050;47.514;18.920;2023-12-29T12:20:53;8.40;;;5.40;;
62535;SDS011;63050;47.514;18.920;2023-12-29T12:25:57;8.70;;;6.30;;
62535;SDS011;63050;47.514;18.920;2023-12-29T12:31:06;7.10;;;5.20;;
62535;SDS011;63050;47.514;18.920;2023-12-29T12:36:10;5.80;;;4.40;;
62535;SDS011;63050;47.514;18.920;2023-12-29T12:41:11;10.40;;;5.80;;
62535;SDS011;63050;47.514;18.920;2023-12-29T12:46:13;13.60;;;8.00;;
62535;SDS011;63050;47.514;18.920;2023-12-29T12:51:14;13.30;;;8.60;;
62535;SDS011;63050;47.514;18.920;2023-12-29T12:56:16;14.40;;;10.80;;
62535;SDS011;63050;47.514;18.920;2023-12-29T13:01:18;10.80;;;7.30;;
62535;SDS011;63050;47.514;18.920;2023-12-29T13:06:21;7.80;;;6.50;;
62535;SDS011;63050;47.514;18.920;2023-12-29T13:11:23;10.10;;;7.50;;
62535;SDS011;63050;47.514;18.920;2023-12-29T13:16:30;10.40;;;7.50;;
62535;SDS011;63050;47.514;18.920;2023-12-29T13:21:37;17.40;;;11.80;;
62535;SDS011;63050;47.514;18.920;2023-12-29T13:26:39;22.70;;;13.20;;
62535;SDS011;63050;47.514;18.920;2023-12-29T13:31:41;20.20;;;12.20;;
62535;SDS011;63050;47.514;18.920;2023-12-29T13:37:02;16.30;;;11.80;;
62535;SDS011;63050;47.514;18.920;2023-12-29T13:42:07;13.00;;;10.90;;
62535;SDS011;63050;47.514;18.920;2023-12-29T13:47:09;11.70;;;10.00;;
62535;SDS011;63050;47.514;18.920;2023-12-29T13:52:11;10.70;;;7.60;;
62535;SDS011;63050;47.514;18.920;2023-12-29T13:57:12;11.50;;;7.90;;
62535;SDS011;63050;47.514;18.920;2023-12-29T14:02:18;13.10;;;10.20;;
62535;SDS011;63050;47.514;18.920;2023-12-29T14:07:32;14.40;;;9.90;;
62535;SDS011;63050;47.514;18.920;2023-12-29T14:12:33;19.20;;;13.80;;
62535;SDS011;63050;47.514;18.920;2023-12-29T14:17:36;16.30;;;13.20;;
62535;SDS011;63050;47.514;18.920;2023-12-29T14:22:38;15.70;;;12.40;;
62535;SDS011;63050;47.514;18.920;2023-12-29T14:27:40;14.50;;;11.20;;
62535;SDS011;63050;47.514;18.920;2023-12-29T14:32:42;11.90;;;10.30;;
62535;SDS011;63050;47.514;18.920;2023-12-29T14:37:43;14.10;;;11.20;;
62535;SDS011;63050;47.514;18.920;2023-12-29T14:42:44;14.90;;;13.00;;
62535;SDS011;63050;47.514;18.920;2023-12-29T14:47:46;16.70;;;13.20;;
62535;SDS011;63050;47.514;18.920;2023-12-29T14:52:48;16.30;;;13.00;;
62535;SDS011;63050;47.514;18.920;2023-12-29T14:57:49;17.50;;;14.50;;
62535;SDS011;63050;47.514;18.920;2023-12-29T15:02:51;20.40;;;16.70;;
62535;SDS011;63050;47.514;18.920;2023-12-29T15:07:52;20.20;;;17.50;;
62535;SDS011;63050;47.514;18.920;2023-12-29T15:12:53;20.50;;;16.10;;
62535;SDS011;63050;47.514;18.920;2023-12-29T15:17:55;18.50;;;16.00;;
62535;SDS011;63050;47.514;18.920;2023-12-29T15:22:56;17.00;;;14.70;;
62535;SDS011;63050;47.514;18.920;2023-12-29T15:27:59;18.70;;;16.20;;
62535;SDS011;63050;47.514;18.920;2023-12-29T15:33:01;17.10;;;15.20;;
62535;SDS011;63050;47.514;18.920;2023-12-29T15:38:03;19.20;;;15.70;;
62535;SDS011;63050;47.514;18.920;2023-12-29T15:43:05;19.30;;;15.00;;
62535;SDS011;63050;47.514;18.920;2023-12-29T15:48:08;17.30;;;14.50;;
62535;SDS011;63050;47.514;18.920;2023-12-29T15:53:09;15.60;;;13.20;;
62535;SDS011;63050;47.514;18.920;2023-12-29T15:58:11;14.80;;;11.70;;
62535;SDS011;63050;47.514;18.920;2023-12-29T16:03:12;12.40;;;11.10;;
62535;SDS011;63050;47.514;18.920;2023-12-29T16:08:14;15.70;;;12.40;;
62535;SDS011;63050;47.514;18.920;2023-12-29T16:13:18;15.70;;;12.40;;
62535;SDS011;63050;47.514;18.920;2023-12-29T16:18:19;18.90;;;12.30;;
62535;SDS011;63050;47.514;18.920;2023-12-29T16:23:20;16.30;;;12.00;;
62535;SDS011;63050;47.514;18.920;2023-12-29T16:28:21;16.10;;;13.00;;
62535;SDS011;63050;47.514;18.920;2023-12-29T16:33:24;15.50;;;13.00;;
62535;SDS011;63050;47.514;18.920;2023-12-29T16:38:25;15.10;;;12.00;;
62535;SDS011;63050;47.514;18.920;2023-12-29T16:43:27;14.60;;;12.00;;
62535;SDS011;63050;47.514;18.920;2023-12-29T16:48:28;17.10;;;13.20;;
62535;SDS011;63050;47.514;18.920;2023-12-29T16:53:29;19.20;;;15.60;;
62535;SDS011;63050;47.514;18.920;2023-12-29T16:58:31;20.10;;;16.40;;
62535;SDS011;63050;47.514;18.920;2023-12-29T17:03:33;14.50;;;10.80;;
62535;SDS011;63050;47.514;18.920;2023-12-29T17:08:35;15.70;;;11.90;;
62535;SDS011;63050;47.514;18.920;2023-12-29T17:13:36;12.60;;;10.10;;
62535;SDS011;63050;47.514;18.920;2023-12-29T17:18:38;13.00;;;10.50;;
62535;SDS011;63050;47.514;18.920;2023-12-29T17:23:40;14.20;;;11.80;;
62535;SDS011;63050;47.514;18.920;2023-12-29T17:28:43;13.90;;;11.70;;
62535;SDS011;63050;47.514;18.920;2023-12-29T17:33:46;17.60;;;12.20;;
62535;SDS011;63050;47.514;18.920;2023-12-29T17:38:48;14.90;;;12.60;;
62535;SDS011;63050;47.514;18.920;2023-12-29T17:43:49;14.40;;;11.40;;
62535;SDS011;63050;47.514;18.920;2023-12-29T17:48:50;14.70;;;10.80;;
62535;SDS011;63050;47.514;18.920;2023-12-29T17:53:52;13.30;;;10.20;;
62535;SDS011;63050;47.514;18.920;2023-12-29T17:58:53;12.20;;;9.70;;
62535;SDS011;63050;47.514;18.920;2023-12-29T18:03:55;12.50;;;9.50;;
62535;SDS011;63050;47.514;18.920;2023-12-29T18:08:57;11.20;;;9.00;;
62535;SDS011;63050;47.514;18.920;2023-12-29T18:13:59;10.90;;;8.00;;
62535;SDS011;63050;47.514;18.920;2023-12-29T18:19:01;12.40;;;8.60;;
62535;SDS011;63050;47.514;18.920;2023-12-29T18:24:04;14.00;;;9.00;;
62535;SDS011;63050;47.514;18.920;2023-12-29T18:29:06;11.10;;;8.90;;
62535;SDS011;63050;47.514;18.920;2023-12-29T18:34:07;10.60;;;8.20;;
62535;SDS011;63050;47.514;18.920;2023-12-29T18:39:11;11.10;;;8.60;;
62535;SDS011;63050;47.514;18.920;2023-12-29T18:44:15;10.30;;;7.70;;
62535;SDS011;63050;47.514;18.920;2023-12-29T18:49:17;9.30;;;8.10;;
62535;SDS011;63050;47.514;18.920;2023-12-29T18:54:18;9.50;;;7.30;;
62535;SDS011;63050;47.514;18.920;2023-12-29T18:59:19;9.30;;;7.20;;
62535;SDS011;63050;47.514;18.920;2023-12-29T19:04:21;12.50;;;7.40;;
62535;SDS011;63050;47.514;18.920;2023-12-29T19:09:22;10.50;;;7.20;;
62535;SDS011;63050;47.514;18.920;2023-12-29T19:14:23;10.60;;;7.00;;
62535;SDS011;63050;47.514;18.920;2023-12-29T19:19:25;10.50;;;7.50;;
62535;SDS011;63050;47.514;18.920;2023-12-29T19:24:27;8.80;;;7.20;;
62535;SDS011;63050;47.514;18.920;2023-12-29T19:29:29;9.40;;;6.50;;
62535;SDS011;63050;47.514;18.920;2023-12-29T19:34:30;10.50;;;6.10;;
62535;SDS011;63050;47.514;18.920;2023-12-29T19:39:32;8.10;;;6.50;;
62535;SDS011;63050;47.514;18.920;2023-12-29T19:44:33;8.50;;;6.10;;
62535;SDS011;63050;47.514;18.920;2023-12-29T19:49:35;8.50;;;6.60;;
62535;SDS011;63050;47.514;18.920;2023-12-29T19:54:37;8.20;;;6.10;;
62535;SDS011;63050;47.514;18.920;2023-12-29T19:59:38;8.50;;;6.40;;
62535;SDS011;63050;47.514;18.920;2023-12-29T20:04:41;9.30;;;6.90;;
62535;SDS011;63050;47.514;18.920;2023-12-29T20:09:43;10.50;;;8.50;;
62535;SDS011;63050;47.514;18.920;2023-12-29T20:14:46;9.20;;;7.40;;
62535;SDS011;63050;47.514;18.920;2023-12-29T20:19:47;10.30;;;7.40;;
62535;SDS011;63050;47.514;18.920;2023-12-29T20:24:50;10.70;;;7.50;;
62535;SDS011;63050;47.514;18.920;2023-12-29T20:29:52;10.10;;;7.40;;
62535;SDS011;63050;47.514;18.920;2023-12-29T20:35:18;11.40;;;7.10;;
62535;SDS011;63050;47.514;18.920;2023-12-29T20:40:20;10.00;;;7.10;;
62535;SDS011;63050;47.514;18.920;2023-12-29T20:45:22;13.00;;;7.50;;
62535;SDS011;63050;47.514;18.920;2023-12-29T20:50:24;9.50;;;7.00;;
62535;SDS011;63050;47.514;18.920;2023-12-29T20:55:25;12.70;;;7.70;;
62535;SDS011;63050;47.514;18.920;2023-12-29T21:00:27;11.10;;;7.60;;
62535;SDS011;63050;47.514;18.920;2023-12-29T21:05:29;12.70;;;8.20;;
62535;SDS011;63050;47.514;18.920;2023-12-29T21:10:31;12.80;;;8.30;;
62535;SDS011;63050;47.514;18.920;2023-12-29T21:15:32;11.80;;;7.30;;
62535;SDS011;63050;47.514;18.920;2023-12-29T21:20:34;12.70;;;8.40;;
62535;SDS011;63050;47.514;18.920;2023-12-29T21:25:37;10.40;;;8.00;;
62535;SDS011;63050;47.514;18.920;2023-12-29T21:30:39;12.20;;;8.00;;
62535;SDS011;63050;47.514;18.920;2023-12-29T21:35:42;12.90;;;8.50;;
62535;SDS011;63050;47.514;18.920;2023-12-29T21:40:43;11.40;;;7.90;;
62535;SDS011;63050;47.514;18.920;2023-12-29T21:45:45;12.00;;;7.50;;
62535;SDS011;63050;47.514;18.920;2023-12-29T21:50:47;15.40;;;7.50;;
62535;SDS011;63050;47.514;18.920;2023-12-29T21:55:48;14.30;;;7.60;;
62535;SDS011;63050;47.514;18.920;2023-12-29T22:00:56;14.60;;;8.30;;
62535;SDS011;63050;47.514;18.920;2023-12-29T22:11:02;10.50;;;6.90;;
62535;SDS011;63050;47.514;18.920;2023-12-29T22:16:04;11.00;;;6.90;;
62535;SDS011;63050;47.514;18.920;2023-12-29T22:21:07;9.80;;;7.00;;
62535;SDS011;63050;47.514;18.920;2023-12-29T22:31:15;11.00;;;7.10;;
62535;SDS011;63050;47.514;18.920;2023-12-29T22:36:19;11.30;;;7.50;;
62535;SDS011;63050;47.514;18.920;2023-12-29T22:41:22;10.70;;;6.80;;
62535;SDS011;63050;47.514;18.920;2023-12-29T22:46:23;10.50;;;7.20;;
62535;SDS011;63050;47.514;18.920;2023-12-29T22:51:26;11.60;;;7.00;;
62535;SDS011;63050;47.514;18.920;2023-12-29T22:56:29;11.70;;;7.00;;
62535;SDS011;63050;47.514;18.920;2023-12-29T23:01:31;9.90;;;6.00;;
62535;SDS011;63050;47.514;18.920;2023-12-29T23:06:33;10.30;;;5.90;;
62535;SDS011;63050;47.514;18.920;2023-12-29T23:11:34;8.70;;;6.10;;
62535;SDS011;63050;47.514;18.920;2023-12-29T23:16:36;8.10;;;5.40;;
62535;SDS011;63050;47.514;18.920;2023-12-29T23:21:38;9.70;;;6.10;;
62535;SDS011;63050;47.514;18.920;2023-12-29T23:26:41;11.20;;;7.10;;
62535;SDS011;63050;47.514;18.920;2023-12-29T23:31:48;8.40;;;6.00;;
62535;SDS011;63050;47.514;18.920;2023-12-29T23:36:49;9.70;;;6.00;;
62535;SDS011;63050;47.514;18.920;2023-12-29T23:41:53;10.80;;;6.50;;
62535;SDS011;63050;47.514;18.920;2023-12-29T23:46:54;11.30;;;6.70;;
62535;SDS011;63050;47.514;18.920;2023-12-29T23:51:56;11.10;;;6.50;;
62535;SDS011;63050;47.514;18.920;2023-12-29T23:56:58;10.00;;;5.80;;
